createdAt,value
2022-09-18T00:01:35.753Z,7.20
2022-09-18T00:04:06.601Z,7.30
2022-09-18T00:06:37.013Z,7.10
2022-09-18T00:09:06.816Z,7.00
2022-09-18T00:11:38.629Z,7.10
2022-09-18T00:14:08.167Z,6.90
2022-09-18T00:16:36.762Z,7.00
2022-09-18T00:19:05.468Z,6.60
2022-09-18T00:21:35.776Z,6.70
2022-09-18T00:24:04.527Z,6.70
2022-09-18T00:26:33.330Z,6.70
2022-09-18T00:29:03.114Z,6.70
2022-09-18T00:31:33.416Z,6.90
2022-09-18T00:34:03.984Z,6.90
2022-09-18T00:36:32.219Z,6.90
2022-09-18T00:39:01.043Z,7.10
2022-09-18T00:41:31.130Z,6.90
2022-09-18T00:44:43.987Z,7.00
2022-09-18T00:47:24.819Z,7.00
2022-09-18T00:49:58.797Z,7.10
2022-09-18T00:52:29.049Z,7.10
2022-09-18T00:55:01.731Z,7.10
2022-09-18T00:57:33.917Z,7.20
2022-09-18T01:00:04.029Z,7.00
2022-09-18T01:02:33.749Z,6.90
2022-09-18T01:05:01.899Z,6.80
2022-09-18T01:07:41.361Z,6.80
2022-09-18T01:10:22.211Z,6.80
2022-09-18T01:12:56.309Z,6.90
2022-09-18T01:15:31.942Z,6.70
2022-09-18T01:18:11.880Z,6.70
2022-09-18T01:21:10.217Z,6.90
2022-09-18T01:24:22.922Z,7.00
2022-09-18T01:27:00.093Z,6.90
2022-09-18T01:29:43.646Z,7.10
2022-09-18T01:32:21.186Z,6.90
2022-09-18T01:34:57.441Z,6.90
2022-09-18T01:37:32.127Z,6.90
2022-09-18T01:40:07.870Z,7.00
2022-09-18T01:42:37.838Z,7.00
2022-09-18T01:45:11.063Z,7.10
2022-09-18T01:47:45.963Z,7.00
2022-09-18T01:50:16.327Z,7.00
2022-09-18T01:52:49.779Z,7.10
2022-09-18T01:55:24.030Z,7.10
2022-09-18T01:57:58.927Z,7.20
2022-09-18T02:00:30.333Z,7.20
2022-09-18T02:03:03.763Z,7.20
2022-09-18T02:05:36.847Z,7.20
2022-09-18T02:08:12.730Z,7.30
2022-09-18T02:10:45.772Z,7.30
2022-09-18T02:13:17.620Z,7.20
2022-09-18T02:15:50.475Z,7.20
2022-09-18T02:18:26.875Z,7.30
2022-09-18T02:20:56.137Z,7.30
2022-09-18T02:23:26.015Z,7.20
2022-09-18T02:25:57.946Z,7.30
2022-09-18T02:28:28.529Z,7.30
2022-09-18T02:31:00.862Z,7.20
2022-09-18T02:33:30.883Z,7.40
2022-09-18T02:36:21.439Z,7.30
2022-09-18T02:38:59.551Z,7.20
2022-09-18T02:41:40.010Z,7.10
2022-09-18T02:44:14.342Z,7.10
2022-09-18T02:46:56.277Z,7.20
2022-09-18T02:49:36.005Z,7.20
2022-09-18T02:52:07.247Z,7.20
2022-09-18T02:54:42.737Z,7.20
2022-09-18T02:57:15.271Z,7.10
2022-09-18T02:59:47.246Z,7.10
2022-09-18T03:02:16.909Z,7.00
2022-09-18T03:04:45.523Z,6.80
2022-09-18T03:07:15.887Z,6.90
2022-09-18T03:09:44.419Z,7.00
2022-09-18T03:12:12.875Z,6.80
2022-09-18T03:14:40.953Z,7.00
2022-09-18T03:17:09.049Z,7.10
2022-09-18T03:19:38.374Z,7.10
2022-09-18T03:22:06.443Z,7.30
2022-09-18T03:24:34.450Z,7.20
2022-09-18T03:27:02.975Z,7.20
2022-09-18T03:29:31.107Z,7.20
2022-09-18T03:31:59.079Z,7.10
2022-09-18T03:34:27.091Z,7.20
2022-09-18T03:36:56.450Z,7.20
2022-09-18T03:39:24.618Z,7.30
2022-09-18T03:41:52.621Z,7.30
2022-09-18T03:44:20.609Z,7.20
2022-09-18T03:46:48.946Z,7.10
2022-09-18T03:49:17.015Z,7.00
2022-09-18T03:51:45.043Z,7.00
2022-09-18T03:54:14.956Z,6.80
2022-09-18T03:56:42.980Z,6.80
2022-09-18T03:59:11.027Z,6.50
2022-09-18T04:01:39.027Z,6.30
2022-09-18T04:04:07.051Z,6.40
2022-09-18T04:06:35.104Z,6.50
2022-09-18T04:09:03.197Z,6.50
2022-09-18T04:11:32.696Z,6.60
2022-09-18T04:14:00.679Z,6.50
2022-09-18T04:16:28.841Z,6.20
2022-09-18T04:18:57.020Z,6.30
2022-09-18T04:21:25.542Z,6.30
2022-09-18T04:23:53.632Z,6.10
2022-09-18T04:26:26.286Z,6.20
2022-09-18T04:28:55.817Z,6.20
2022-09-18T04:31:23.867Z,6.10
2022-09-18T04:33:52.060Z,5.90
2022-09-18T04:36:20.269Z,6.00
2022-09-18T04:38:48.401Z,5.90
2022-09-18T04:41:16.614Z,5.80
2022-09-18T04:43:44.816Z,5.60
2022-09-18T04:46:14.340Z,5.60
2022-09-18T04:48:42.483Z,5.60
2022-09-18T04:51:10.806Z,5.60
2022-09-18T04:53:39.571Z,5.70
2022-09-18T04:56:08.112Z,5.80
2022-09-18T04:58:36.178Z,5.60
2022-09-18T05:01:04.313Z,5.70
2022-09-18T05:03:33.874Z,5.60
2022-09-18T05:06:02.094Z,5.60
2022-09-18T05:08:31.406Z,5.60
2022-09-18T05:10:59.478Z,5.60
2022-09-18T05:13:27.504Z,5.60
2022-09-18T05:15:56.772Z,5.40
2022-09-18T05:18:25.131Z,5.40
2022-09-18T05:20:55.280Z,5.50
2022-09-18T05:23:23.791Z,5.50
2022-09-18T05:25:51.987Z,5.60
2022-09-18T05:28:20.264Z,5.40
2022-09-18T05:30:48.306Z,5.30
2022-09-18T05:33:16.449Z,5.40
2022-09-18T05:35:44.895Z,5.40
2022-09-18T05:38:14.510Z,5.60
2022-09-18T05:40:42.734Z,5.60
2022-09-18T05:43:10.951Z,5.70
2022-09-18T05:45:38.938Z,5.80
2022-09-18T05:48:08.196Z,5.70
2022-09-18T05:50:37.428Z,5.70
2022-09-18T05:53:07.962Z,5.80
2022-09-18T05:55:37.888Z,5.80
2022-09-18T05:58:08.622Z,5.80
2022-09-18T06:00:37.021Z,6.00
2022-09-18T06:03:07.717Z,6.10
2022-09-18T06:05:37.762Z,6.20
2022-09-18T06:08:08.203Z,6.20
2022-09-18T06:10:39.294Z,6.30
2022-09-18T06:13:10.088Z,6.30
2022-09-18T06:15:38.083Z,6.40
2022-09-18T06:18:08.730Z,6.50
2022-09-18T06:20:37.121Z,6.50
2022-09-18T06:23:05.256Z,6.50
2022-09-18T06:25:33.231Z,6.40
2022-09-18T06:28:03.228Z,6.40
2022-09-18T06:30:32.748Z,6.50
2022-09-18T06:33:02.409Z,6.50
2022-09-18T06:35:31.086Z,6.50
2022-09-18T06:38:02.973Z,6.50
2022-09-18T06:40:31.264Z,6.50
2022-09-18T06:43:01.604Z,6.80
2022-09-18T06:45:32.031Z,6.50
2022-09-18T06:48:02.671Z,6.60
2022-09-18T06:50:30.850Z,6.70
2022-09-18T06:53:02.978Z,6.80
2022-09-18T06:55:31.755Z,6.80
2022-09-18T06:58:00.859Z,6.90
2022-09-18T07:00:31.118Z,6.90
2022-09-18T07:02:59.999Z,6.90
2022-09-18T07:05:29.502Z,6.90
2022-09-18T07:07:57.902Z,7.10
2022-09-18T07:10:27.213Z,7.10
2022-09-18T07:12:57.679Z,7.30
2022-09-18T07:15:26.813Z,7.50
2022-09-18T07:17:58.640Z,7.50
2022-09-18T07:20:26.964Z,7.10
2022-09-18T07:22:55.862Z,7.20
2022-09-18T07:25:24.721Z,7.20
2022-09-18T07:27:53.016Z,7.50
2022-09-18T07:30:21.573Z,7.60
2022-09-18T07:32:49.996Z,7.40
2022-09-18T07:35:19.453Z,7.40
2022-09-18T07:37:47.424Z,7.40
2022-09-18T07:40:15.719Z,7.60
2022-09-18T07:42:43.731Z,7.70
2022-09-18T07:45:11.911Z,7.90
2022-09-18T07:47:40.110Z,7.90
2022-09-18T07:50:13.267Z,7.80
2022-09-18T07:52:49.538Z,7.70
2022-09-18T07:55:19.455Z,7.70
2022-09-18T07:57:47.919Z,7.80
2022-09-18T08:00:16.725Z,7.80
2022-09-18T08:02:44.901Z,7.80
2022-09-18T08:05:12.989Z,7.80
2022-09-18T08:07:42.437Z,7.90
2022-09-18T08:10:11.960Z,8.00
2022-09-18T08:12:39.997Z,8.20
2022-09-18T08:15:09.261Z,8.00
2022-09-18T08:17:44.362Z,8.10
2022-09-18T08:20:12.493Z,8.20
2022-09-18T08:22:42.593Z,8.40
2022-09-18T08:25:11.087Z,8.40
2022-09-18T08:27:39.334Z,8.30
2022-09-18T08:30:09.304Z,8.30
2022-09-18T08:32:38.267Z,8.20
2022-09-18T08:35:07.046Z,8.20
2022-09-18T08:37:35.066Z,8.20
2022-09-18T08:40:05.541Z,8.30
2022-09-18T08:42:41.734Z,8.40
2022-09-18T08:45:32.362Z,8.40
2022-09-18T08:48:07.503Z,8.40
2022-09-18T08:50:40.075Z,8.40
2022-09-18T08:53:18.402Z,8.30
2022-09-18T08:55:49.727Z,8.40
2022-09-18T08:58:23.924Z,8.80
2022-09-18T09:00:54.910Z,9.00
2022-09-18T09:03:32.067Z,9.10
2022-09-18T09:06:02.536Z,9.20
2022-09-18T09:08:48.234Z,9.20
2022-09-18T09:11:28.035Z,9.10
2022-09-18T09:14:16.944Z,8.80
2022-09-18T09:16:46.754Z,8.60
2022-09-18T09:19:28.279Z,8.70
2022-09-18T09:22:05.368Z,8.60
2022-09-18T09:24:35.861Z,8.30
2022-09-18T09:27:15.851Z,8.40
2022-09-18T09:29:46.251Z,8.20
2022-09-18T09:32:23.230Z,8.30
2022-09-18T09:34:56.899Z,8.30
2022-09-18T09:37:33.676Z,8.40
2022-09-18T09:40:09.906Z,8.40
2022-09-18T09:42:43.236Z,8.30
2022-09-18T09:45:16.315Z,8.10
2022-09-18T09:47:50.158Z,8.00
2022-09-18T09:50:34.906Z,8.20
2022-09-18T09:53:07.158Z,8.10
2022-09-18T09:55:42.420Z,8.00
2022-09-18T09:58:21.908Z,7.80
2022-09-18T10:00:57.518Z,8.00
2022-09-18T10:03:42.203Z,8.20
2022-09-18T10:06:20.178Z,8.40
2022-09-18T10:08:51.683Z,8.60
2022-09-18T10:11:20.008Z,8.20
2022-09-18T10:13:54.659Z,8.00
2022-09-18T10:16:26.867Z,6.90
2022-09-18T10:18:55.125Z,6.30
2022-09-18T10:21:27.033Z,5.90
2022-09-18T10:24:00.360Z,5.90
2022-09-18T10:26:32.860Z,5.90
2022-09-18T10:29:02.323Z,5.90
2022-09-18T10:31:48.339Z,6.00
2022-09-18T10:34:34.275Z,6.60
2022-09-18T10:37:02.459Z,6.80
2022-09-18T10:39:32.211Z,7.10
2022-09-18T10:42:01.434Z,7.20
2022-09-18T10:44:34.673Z,7.40
2022-09-18T10:47:07.468Z,7.30
2022-09-18T10:49:40.744Z,7.50
2022-09-18T10:52:37.738Z,7.70
2022-09-18T10:55:19.059Z,7.80
2022-09-18T10:58:06.075Z,7.90
2022-09-18T11:00:39.633Z,8.10
2022-09-18T11:03:34.840Z,8.50
2022-09-18T11:06:05.353Z,8.70
2022-09-18T11:08:37.137Z,8.70
2022-09-18T11:11:08.987Z,9.00
2022-09-18T11:13:44.770Z,9.30
2022-09-18T11:16:24.140Z,9.00
2022-09-18T11:19:07.731Z,9.30
2022-09-18T11:21:45.333Z,9.60
2022-09-18T11:24:21.943Z,9.60
2022-09-18T11:26:51.871Z,9.60
2022-09-18T11:29:25.073Z,9.50
2022-09-18T11:31:59.631Z,9.20
2022-09-18T11:34:30.892Z,9.10
2022-09-18T11:37:03.655Z,9.10
2022-09-18T11:39:38.682Z,8.90
2022-09-18T11:42:12.997Z,8.70
2022-09-18T11:44:41.906Z,8.60
2022-09-18T11:47:37.763Z,8.80
2022-09-18T11:50:15.022Z,9.10
2022-09-18T11:52:46.049Z,9.20
2022-09-18T11:55:29.830Z,9.50
2022-09-18T11:58:00.796Z,9.90
2022-09-18T12:00:34.215Z,10.20
2022-09-18T12:03:13.084Z,10.50
2022-09-18T12:05:52.297Z,10.60
2022-09-18T12:08:25.105Z,10.50
2022-09-18T12:11:11.473Z,10.60
2022-09-18T12:13:48.024Z,10.70
2022-09-18T12:16:21.231Z,10.60
2022-09-18T12:18:58.954Z,10.60
2022-09-18T12:21:36.302Z,10.30
2022-09-18T12:24:04.839Z,10.20
2022-09-18T12:26:43.653Z,10.10
2022-09-18T12:29:21.084Z,9.70
2022-09-18T12:31:59.341Z,9.60
2022-09-18T12:34:39.573Z,9.80
2022-09-18T12:37:18.976Z,9.80
2022-09-18T12:40:13.103Z,9.90
2022-09-18T12:42:49.629Z,10.10
2022-09-18T12:45:41.546Z,10.40
2022-09-18T12:48:33.440Z,10.60
2022-09-18T12:51:17.144Z,10.80
2022-09-18T12:53:53.921Z,11.00
2022-09-18T12:56:35.399Z,10.90
2022-09-18T12:59:30.198Z,10.30
2022-09-18T13:02:05.034Z,10.50
2022-09-18T13:04:38.230Z,10.30
2022-09-18T13:07:14.070Z,10.50
2022-09-18T13:09:49.010Z,10.30
2022-09-18T13:12:22.694Z,10.00
2022-09-18T13:14:54.892Z,10.10
2022-09-18T13:17:27.522Z,10.20
2022-09-18T13:20:00.594Z,10.20
2022-09-18T13:22:35.039Z,10.20
2022-09-18T13:25:04.384Z,10.30
2022-09-18T13:27:33.468Z,10.20
2022-09-18T13:30:15.846Z,10.20
2022-09-18T13:32:43.997Z,10.40
2022-09-18T13:35:23.395Z,10.30
2022-09-18T13:38:06.303Z,10.20
2022-09-18T13:40:37.078Z,10.20
2022-09-18T13:43:22.975Z,10.30
2022-09-18T13:45:51.243Z,10.30
2022-09-18T13:48:23.991Z,10.30
2022-09-18T13:50:55.746Z,10.10
2022-09-18T13:53:41.684Z,10.30
2022-09-18T13:56:11.078Z,10.30
2022-09-18T13:58:52.230Z,10.20
2022-09-18T14:01:59.225Z,10.20
2022-09-18T14:04:59.037Z,10.50
2022-09-18T14:07:56.154Z,10.40
2022-09-18T14:10:29.659Z,10.40
2022-09-18T14:13:34.301Z,10.50
2022-09-18T14:16:09.020Z,10.60
2022-09-18T14:18:54.668Z,10.80
2022-09-18T14:21:28.454Z,10.60
2022-09-18T14:24:23.070Z,10.70
2022-09-18T14:27:01.334Z,10.90
2022-09-18T14:29:33.792Z,10.90
2022-09-18T14:32:03.386Z,10.80
2022-09-18T14:34:38.771Z,10.50
2022-09-18T14:37:26.764Z,10.30
2022-09-18T14:39:56.195Z,10.20
2022-09-18T14:42:33.176Z,10.20
2022-09-18T14:45:15.939Z,10.40
2022-09-18T14:47:46.326Z,10.40
2022-09-18T14:50:24.475Z,10.20
2022-09-18T14:52:52.599Z,9.90
2022-09-18T14:55:23.239Z,9.70
2022-09-18T14:57:57.511Z,10.00
2022-09-18T15:00:29.945Z,9.90
2022-09-18T15:03:01.048Z,9.80
2022-09-18T15:05:29.690Z,9.70
2022-09-18T15:08:02.828Z,9.50
2022-09-18T15:10:31.925Z,9.40
2022-09-18T15:13:06.747Z,9.30
2022-09-18T15:15:38.255Z,9.10
2022-09-18T15:18:19.875Z,9.10
2022-09-18T15:20:50.662Z,9.10
2022-09-18T15:23:26.898Z,9.20
2022-09-18T15:25:56.556Z,9.20
2022-09-18T15:28:28.505Z,9.30
2022-09-18T15:31:05.715Z,9.30
2022-09-18T15:33:35.351Z,9.40
2022-09-18T15:36:04.929Z,9.50
2022-09-18T15:38:40.922Z,9.50
2022-09-18T15:41:24.586Z,9.40
2022-09-18T15:43:54.159Z,9.40
2022-09-18T15:46:27.527Z,9.40
2022-09-18T15:48:59.437Z,9.40
2022-09-18T15:51:30.035Z,9.30
2022-09-18T15:54:09.300Z,9.40
2022-09-18T15:56:40.466Z,9.60
2022-09-18T15:59:20.186Z,9.70
2022-09-18T16:01:49.393Z,9.70
2022-09-18T16:04:20.293Z,9.70
2022-09-18T16:07:00.302Z,9.80
2022-09-18T16:09:41.323Z,9.90
2022-09-18T16:12:43.315Z,9.90
2022-09-18T16:15:21.962Z,9.90
2022-09-18T16:18:19.059Z,9.90
2022-09-18T16:21:03.974Z,9.70
2022-09-18T16:23:34.309Z,9.70
2022-09-18T16:26:06.323Z,9.60
2022-09-18T16:28:36.479Z,9.60
2022-09-18T16:31:06.170Z,9.60
2022-09-18T16:33:36.027Z,9.50
2022-09-18T16:36:07.707Z,9.50
2022-09-18T16:38:36.222Z,9.40
2022-09-18T16:41:05.547Z,9.30
2022-09-18T16:43:35.767Z,9.30
2022-09-18T16:46:05.263Z,9.30
2022-09-18T16:48:33.282Z,9.30
2022-09-18T16:51:01.330Z,9.20
2022-09-18T16:53:29.435Z,9.20
2022-09-18T16:55:58.794Z,9.20
2022-09-18T16:58:28.881Z,9.10
2022-09-18T17:00:58.683Z,9.10
2022-09-18T17:03:29.011Z,9.00
2022-09-18T17:05:57.323Z,9.00
2022-09-18T17:08:25.534Z,8.90
2022-09-18T17:10:53.586Z,8.90
2022-09-18T17:13:21.843Z,8.80
2022-09-18T17:15:50.231Z,8.80
2022-09-18T17:18:18.458Z,8.80
2022-09-18T17:20:51.167Z,8.70
2022-09-18T17:23:20.009Z,8.70
2022-09-18T17:25:49.511Z,8.70
2022-09-18T17:28:18.338Z,8.60
2022-09-18T17:30:47.177Z,8.60
2022-09-18T17:33:19.813Z,8.50
2022-09-18T17:35:49.887Z,8.50
2022-09-18T17:38:18.099Z,8.50
2022-09-18T17:40:57.391Z,8.50
2022-09-18T17:43:25.506Z,8.50
2022-09-18T17:45:57.211Z,8.50
2022-09-18T17:48:26.542Z,8.50
2022-09-18T17:51:00.202Z,8.40
2022-09-18T17:53:29.164Z,8.30
2022-09-18T17:55:59.931Z,8.30
2022-09-18T17:58:28.274Z,8.30
2022-09-18T18:00:57.196Z,8.20
2022-09-18T18:03:26.715Z,8.30
2022-09-18T18:05:57.835Z,8.20
2022-09-18T18:08:27.885Z,8.10
2022-09-18T18:10:57.065Z,8.10
2022-09-18T18:13:25.197Z,8.10
2022-09-18T18:15:53.804Z,8.20
2022-09-18T18:18:22.360Z,8.20
2022-09-18T18:20:51.831Z,8.20
2022-09-18T18:23:20.759Z,8.20
2022-09-18T18:25:50.235Z,8.20
2022-09-18T18:28:18.524Z,8.10
2022-09-18T18:30:51.411Z,8.00
2022-09-18T18:33:19.591Z,8.00
2022-09-18T18:35:47.928Z,8.00
2022-09-18T18:38:17.398Z,7.90
2022-09-18T18:40:45.835Z,7.90
2022-09-18T18:43:15.344Z,7.90
2022-09-18T18:45:52.512Z,7.90
2022-09-18T18:48:20.639Z,8.00
2022-09-18T18:50:49.538Z,7.90
2022-09-18T18:53:17.899Z,7.90
2022-09-18T18:55:48.494Z,7.90
2022-09-18T18:58:18.149Z,8.00
2022-09-18T19:00:46.574Z,7.90
2022-09-18T19:03:14.951Z,7.90
2022-09-18T19:05:43.150Z,7.90
2022-09-18T19:08:11.376Z,8.00
2022-09-18T19:10:39.362Z,7.80
2022-09-18T19:13:07.397Z,7.90
2022-09-18T19:15:38.525Z,7.90
2022-09-18T19:18:06.651Z,7.80
2022-09-18T19:20:35.637Z,7.80
2022-09-18T19:23:04.735Z,8.00
2022-09-18T19:25:35.199Z,7.90
2022-09-18T19:28:03.522Z,7.80
2022-09-18T19:30:31.937Z,7.80
2022-09-18T19:33:01.318Z,7.80
2022-09-18T19:35:29.335Z,7.70
2022-09-18T19:37:57.327Z,7.70
2022-09-18T19:40:25.497Z,7.70
2022-09-18T19:42:59.809Z,7.70
2022-09-18T19:45:30.081Z,7.80
2022-09-18T19:47:58.181Z,7.80
2022-09-18T19:50:30.962Z,7.70
2022-09-18T19:52:58.964Z,7.60
2022-09-18T19:55:27.677Z,7.60
2022-09-18T19:57:57.802Z,7.70
2022-09-18T20:00:26.285Z,7.70
2022-09-18T20:02:57.702Z,7.70
2022-09-18T20:05:27.915Z,7.60
2022-09-18T20:07:55.879Z,7.50
2022-09-18T20:10:24.318Z,7.50
2022-09-18T20:12:53.926Z,7.60
2022-09-18T20:15:21.970Z,7.50
2022-09-18T20:17:50.249Z,7.50
2022-09-18T20:20:18.494Z,7.50
2022-09-18T20:22:47.886Z,7.50
2022-09-18T20:25:16.377Z,7.50
2022-09-18T20:27:44.420Z,7.50
2022-09-18T20:30:13.435Z,7.60
2022-09-18T20:32:41.753Z,7.50
2022-09-18T20:35:10.746Z,7.50
2022-09-18T20:37:38.809Z,7.50
2022-09-18T20:40:11.132Z,7.40
2022-09-18T20:42:39.233Z,7.40
2022-09-18T20:45:09.091Z,7.40
2022-09-18T20:47:38.984Z,7.40
2022-09-18T20:50:09.057Z,7.50
2022-09-18T20:52:39.158Z,7.40
2022-09-18T20:55:12.441Z,7.40
2022-09-18T20:57:40.938Z,7.40
2022-09-18T21:00:12.600Z,7.30
2022-09-18T21:02:40.663Z,7.30
2022-09-18T21:05:12.943Z,7.40
2022-09-18T21:07:43.641Z,7.30
2022-09-18T21:10:14.046Z,7.30
2022-09-18T21:12:42.299Z,7.40
2022-09-18T21:15:13.613Z,7.30
2022-09-18T21:17:42.486Z,7.40
2022-09-18T21:20:11.043Z,7.40
2022-09-18T21:22:59.402Z,7.40
2022-09-18T21:25:32.265Z,7.30
2022-09-18T21:28:00.270Z,7.30
2022-09-18T21:30:28.338Z,7.30
2022-09-18T21:32:56.823Z,7.30
2022-09-18T21:35:24.887Z,7.30
2022-09-18T21:37:54.466Z,7.30
2022-09-18T21:40:24.521Z,7.30
2022-09-18T21:42:54.986Z,7.30
2022-09-18T21:45:23.623Z,7.30
2022-09-18T21:47:52.442Z,7.30
2022-09-18T21:50:20.577Z,7.30
2022-09-18T21:52:48.635Z,7.20
2022-09-18T21:55:16.894Z,7.20
2022-09-18T21:57:44.885Z,7.20
2022-09-18T22:00:14.714Z,7.20
2022-09-18T22:02:43.293Z,7.20
2022-09-18T22:05:12.159Z,7.20
2022-09-18T22:07:40.813Z,7.20
2022-09-18T22:10:09.682Z,7.20
2022-09-18T22:12:38.949Z,7.10
2022-09-18T22:15:07.787Z,7.10
2022-09-18T22:17:39.096Z,7.00
2022-09-18T22:20:07.779Z,7.00
2022-09-18T22:22:35.910Z,7.00
2022-09-18T22:25:04.041Z,7.00
2022-09-18T22:27:32.021Z,7.00
2022-09-18T22:30:00.082Z,6.90
2022-09-18T22:32:28.204Z,7.00
2022-09-18T22:34:57.583Z,7.00
2022-09-18T22:37:25.601Z,6.90
2022-09-18T22:39:54.108Z,6.90
2022-09-18T22:42:22.282Z,6.90
2022-09-18T22:44:50.344Z,6.90
2022-09-18T22:47:18.343Z,6.80
2022-09-18T22:49:46.612Z,6.90
2022-09-18T22:52:16.557Z,6.90
2022-09-18T22:54:44.526Z,6.90
2022-09-18T22:57:12.540Z,6.90
2022-09-18T22:59:40.530Z,6.80
2022-09-18T23:02:08.658Z,6.80
2022-09-18T23:04:36.974Z,6.80
2022-09-18T23:07:05.086Z,6.80
2022-09-18T23:09:34.536Z,6.80
2022-09-18T23:12:02.856Z,6.80
2022-09-18T23:14:32.245Z,6.80
2022-09-18T23:17:01.399Z,6.70
2022-09-18T23:19:31.350Z,6.80
2022-09-18T23:21:59.417Z,6.80
2022-09-18T23:24:28.307Z,6.80
2022-09-18T23:26:58.906Z,6.80
2022-09-18T23:29:28.350Z,6.80
2022-09-18T23:31:57.556Z,6.70
2022-09-18T23:34:28.717Z,6.80
2022-09-18T23:36:58.077Z,6.70
2022-09-18T23:39:28.664Z,6.70
2022-09-18T23:41:59.327Z,6.70
2022-09-18T23:44:30.428Z,6.60
2022-09-18T23:46:59.103Z,6.10
2022-09-18T23:49:27.297Z,5.80
2022-09-18T23:51:55.964Z,5.80
2022-09-18T23:54:26.233Z,5.70
2022-09-18T23:56:54.768Z,5.80
2022-09-18T23:59:26.304Z,5.80
